sensor_id;sensor_type;location;lat;lon;timestamp;pressure;altitude;pressure_sealevel;temperature;humidity
9077;BME280;4574;51.072;17.174;2022-07-11T00:00:27;100362.06;;;16.01;100.00
9077;BME280;4574;51.072;17.174;2022-07-11T00:02:57;100366.75;;;15.99;100.00
9077;BME280;4574;51.072;17.174;2022-07-11T00:05:25;100358.91;;;15.98;100.00
9077;BME280;4574;51.072;17.174;2022-07-11T00:07:54;100358.09;;;15.97;100.00
9077;BME280;4574;51.072;17.174;2022-07-11T00:10:22;100348.94;;;15.92;100.00
9077;BME280;4574;51.072;17.174;2022-07-11T00:12:51;100353.91;;;15.95;100.00
9077;BME280;4574;51.072;17.174;2022-07-11T00:15:20;100358.81;;;15.91;100.00
9077;BME280;4574;51.072;17.174;2022-07-11T00:17:48;100344.16;;;15.87;100.00
9077;BME280;4574;51.072;17.174;2022-07-11T00:20:18;100352.97;;;15.88;100.00
9077;BME280;4574;51.072;17.174;2022-07-11T00:22:47;100342.84;;;15.83;100.00
9077;BME280;4574;51.072;17.174;2022-07-11T00:25:16;100346.50;;;15.82;100.00
9077;BME280;4574;51.072;17.174;2022-07-11T00:27:44;100348.53;;;15.80;100.00
9077;BME280;4574;51.072;17.174;2022-07-11T00:30:17;100356.91;;;15.77;100.00
9077;BME280;4574;51.072;17.174;2022-07-11T00:32:45;100345.06;;;15.72;100.00
9077;BME280;4574;51.072;17.174;2022-07-11T00:35:14;100355.59;;;15.73;100.00
9077;BME280;4574;51.072;17.174;2022-07-11T00:37:44;100343.59;;;15.69;100.00
9077;BME280;4574;51.072;17.174;2022-07-11T00:40:12;100341.94;;;15.68;100.00
9077;BME280;4574;51.072;17.174;2022-07-11T00:42:41;100338.63;;;15.66;100.00
9077;BME280;4574;51.072;17.174;2022-07-11T00:45:10;100342.63;;;15.62;100.00
9077;BME280;4574;51.072;17.174;2022-07-11T00:47:41;100336.66;;;15.60;100.00
9077;BME280;4574;51.072;17.174;2022-07-11T00:50:09;100333.97;;;15.60;100.00
9077;BME280;4574;51.072;17.174;2022-07-11T00:52:38;100336.00;;;15.58;100.00
9077;BME280;4574;51.072;17.174;2022-07-11T00:55:09;100343.34;;;15.56;100.00
9077;BME280;4574;51.072;17.174;2022-07-11T00:57:39;100333.84;;;15.54;100.00
9077;BME280;4574;51.072;17.174;2022-07-11T01:00:09;100339.38;;;15.52;100.00
9077;BME280;4574;51.072;17.174;2022-07-11T01:02:38;100326.19;;;15.51;100.00
9077;BME280;4574;51.072;17.174;2022-07-11T01:05:07;100340.38;;;15.51;100.00
9077;BME280;4574;51.072;17.174;2022-07-11T01:07:36;100338.72;;;15.50;100.00
9077;BME280;4574;51.072;17.174;2022-07-11T01:10:07;100333.72;;;15.47;100.00
9077;BME280;4574;51.072;17.174;2022-07-11T01:12:37;100339.06;;;15.47;100.00
9077;BME280;4574;51.072;17.174;2022-07-11T01:15:06;100330.56;;;15.44;100.00
9077;BME280;4574;51.072;17.174;2022-07-11T01:17:35;100331.91;;;15.40;100.00
9077;BME280;4574;51.072;17.174;2022-07-11T01:20:04;100332.09;;;15.38;100.00
9077;BME280;4574;51.072;17.174;2022-07-11T01:22:36;100333.91;;;15.38;100.00
9077;BME280;4574;51.072;17.174;2022-07-11T01:25:08;100326.47;;;15.33;100.00
9077;BME280;4574;51.072;17.174;2022-07-11T01:27:37;100334.63;;;15.32;100.00
9077;BME280;4574;51.072;17.174;2022-07-11T01:30:07;100326.13;;;15.28;100.00
9077;BME280;4574;51.072;17.174;2022-07-11T01:32:35;100330.75;;;15.26;100.00
9077;BME280;4574;51.072;17.174;2022-07-11T01:35:05;100328.63;;;15.22;100.00
9077;BME280;4574;51.072;17.174;2022-07-11T01:37:33;100323.00;;;15.17;100.00
9077;BME280;4574;51.072;17.174;2022-07-11T01:40:02;100332.81;;;15.16;100.00
9077;BME280;4574;51.072;17.174;2022-07-11T01:42:32;100336.66;;;15.14;100.00
9077;BME280;4574;51.072;17.174;2022-07-11T01:45:00;100337.16;;;15.09;100.00
9077;BME280;4574;51.072;17.174;2022-07-11T01:47:29;100326.19;;;15.04;100.00
9077;BME280;4574;51.072;17.174;2022-07-11T01:49:57;100326.53;;;15.01;100.00
9077;BME280;4574;51.072;17.174;2022-07-11T01:52:26;100324.22;;;14.98;100.00
9077;BME280;4574;51.072;17.174;2022-07-11T01:54:55;100320.75;;;14.90;100.00
9077;BME280;4574;51.072;17.174;2022-07-11T01:57:23;100323.94;;;14.85;100.00
9077;BME280;4574;51.072;17.174;2022-07-11T01:59:53;100326.63;;;14.77;100.00
9077;BME280;4574;51.072;17.174;2022-07-11T02:02:22;100317.28;;;14.73;100.00
9077;BME280;4574;51.072;17.174;2022-07-11T02:04:50;100321.31;;;14.70;100.00
9077;BME280;4574;51.072;17.174;2022-07-11T02:07:19;100324.97;;;14.69;100.00
9077;BME280;4574;51.072;17.174;2022-07-11T02:10:09;100328.97;;;14.65;100.00
9077;BME280;4574;51.072;17.174;2022-07-11T02:12:37;100336.31;;;14.63;100.00
9077;BME280;4574;51.072;17.174;2022-07-11T02:15:09;100338.66;;;14.58;100.00
9077;BME280;4574;51.072;17.174;2022-07-11T02:17:37;100331.19;;;14.53;100.00
9077;BME280;4574;51.072;17.174;2022-07-11T02:20:07;100336.00;;;14.50;100.00
9077;BME280;4574;51.072;17.174;2022-07-11T02:22:43;100335.66;;;14.45;100.00
9077;BME280;4574;51.072;17.174;2022-07-11T02:25:12;100346.00;;;14.40;100.00
9077;BME280;4574;51.072;17.174;2022-07-11T02:27:40;100342.00;;;14.36;100.00
9077;BME280;4574;51.072;17.174;2022-07-11T02:30:11;100338.03;;;14.32;100.00
9077;BME280;4574;51.072;17.174;2022-07-11T02:32:39;100345.34;;;14.30;100.00
9077;BME280;4574;51.072;17.174;2022-07-11T02:35:09;100337.84;;;14.25;100.00
9077;BME280;4574;51.072;17.174;2022-07-11T02:37:38;100343.50;;;14.22;100.00
9077;BME280;4574;51.072;17.174;2022-07-11T02:40:07;100346.69;;;14.18;100.00
9077;BME280;4574;51.072;17.174;2022-07-11T02:42:35;100346.31;;;14.13;100.00
9077;BME280;4574;51.072;17.174;2022-07-11T02:45:05;100334.66;;;14.06;100.00
9077;BME280;4574;51.072;17.174;2022-07-11T02:47:36;100350.97;;;14.03;100.00
9077;BME280;4574;51.072;17.174;2022-07-11T02:50:08;100343.78;;;13.95;100.00
9077;BME280;4574;51.072;17.174;2022-07-11T02:52:39;100345.13;;;13.91;100.00
9077;BME280;4574;51.072;17.174;2022-07-11T02:55:09;100344.13;;;13.84;100.00
9077;BME280;4574;51.072;17.174;2022-07-11T02:57:38;100347.94;;;13.74;100.00
9077;BME280;4574;51.072;17.174;2022-07-11T03:00:10;100343.59;;;13.65;100.00
9077;BME280;4574;51.072;17.174;2022-07-11T03:02:40;100342.56;;;13.58;100.00
9077;BME280;4574;51.072;17.174;2022-07-11T03:05:09;100349.03;;;13.55;100.00
9077;BME280;4574;51.072;17.174;2022-07-11T03:07:40;100346.38;;;13.47;100.00
9077;BME280;4574;51.072;17.174;2022-07-11T03:10:10;100344.19;;;13.43;100.00
9077;BME280;4574;51.072;17.174;2022-07-11T03:12:39;100339.84;;;13.42;100.00
9077;BME280;4574;51.072;17.174;2022-07-11T03:15:09;100341.16;;;13.38;100.00
9077;BME280;4574;51.072;17.174;2022-07-11T03:17:39;100344.00;;;13.37;100.00
9077;BME280;4574;51.072;17.174;2022-07-11T03:20:09;100337.84;;;13.36;100.00
9077;BME280;4574;51.072;17.174;2022-07-11T03:22:38;100341.50;;;13.35;100.00
9077;BME280;4574;51.072;17.174;2022-07-11T03:25:07;100341.00;;;13.32;100.00
9077;BME280;4574;51.072;17.174;2022-07-11T03:27:36;100344.16;;;13.35;100.00
9077;BME280;4574;51.072;17.174;2022-07-11T03:30:06;100345.81;;;13.36;100.00
9077;BME280;4574;51.072;17.174;2022-07-11T03:32:34;100358.78;;;13.39;100.00
9077;BME280;4574;51.072;17.174;2022-07-11T03:35:05;100348.16;;;13.39;100.00
9077;BME280;4574;51.072;17.174;2022-07-11T03:37:52;100347.00;;;13.41;100.00
9077;BME280;4574;51.072;17.174;2022-07-11T03:40:21;100347.81;;;13.42;100.00
9077;BME280;4574;51.072;17.174;2022-07-11T03:42:50;100349.16;;;13.46;100.00
9077;BME280;4574;51.072;17.174;2022-07-11T03:45:19;100351.00;;;13.45;100.00
9077;BME280;4574;51.072;17.174;2022-07-11T03:47:48;100346.84;;;13.43;100.00
9077;BME280;4574;51.072;17.174;2022-07-11T03:50:17;100343.19;;;13.44;100.00
9077;BME280;4574;51.072;17.174;2022-07-11T03:52:46;100345.84;;;13.44;100.00
9077;BME280;4574;51.072;17.174;2022-07-11T03:55:15;100355.81;;;13.42;100.00
9077;BME280;4574;51.072;17.174;2022-07-11T03:57:43;100353.16;;;13.42;100.00
9077;BME280;4574;51.072;17.174;2022-07-11T04:00:13;100356.81;;;13.41;100.00
9077;BME280;4574;51.072;17.174;2022-07-11T04:02:42;100356.31;;;13.38;100.00
9077;BME280;4574;51.072;17.174;2022-07-11T04:05:12;100362.97;;;13.41;100.00
9077;BME280;4574;51.072;17.174;2022-07-11T04:07:42;100360.44;;;13.40;100.00
9077;BME280;4574;51.072;17.174;2022-07-11T04:10:10;100369.28;;;13.40;100.00
9077;BME280;4574;51.072;17.174;2022-07-11T04:12:39;100368.28;;;13.41;100.00
9077;BME280;4574;51.072;17.174;2022-07-11T04:15:08;100369.94;;;13.42;100.00
9077;BME280;4574;51.072;17.174;2022-07-11T04:17:37;100373.28;;;13.44;100.00
9077;BME280;4574;51.072;17.174;2022-07-11T04:20:06;100358.13;;;13.45;100.00
9077;BME280;4574;51.072;17.174;2022-07-11T04:22:35;100351.47;;;13.41;100.00
9077;BME280;4574;51.072;17.174;2022-07-11T04:25:07;100367.31;;;13.50;100.00
9077;BME280;4574;51.072;17.174;2022-07-11T04:27:35;100361.78;;;13.44;100.00
9077;BME280;4574;51.072;17.174;2022-07-11T04:30:07;100366.78;;;13.47;100.00
9077;BME280;4574;51.072;17.174;2022-07-11T04:32:36;100365.78;;;13.48;100.00
9077;BME280;4574;51.072;17.174;2022-07-11T04:35:06;100371.78;;;13.50;100.00
9077;BME280;4574;51.072;17.174;2022-07-11T04:37:35;100369.78;;;13.52;100.00
9077;BME280;4574;51.072;17.174;2022-07-11T04:40:07;100373.13;;;13.54;100.00
9077;BME280;4574;51.072;17.174;2022-07-11T04:42:39;100381.78;;;13.56;100.00
9077;BME280;4574;51.072;17.174;2022-07-11T04:45:09;100380.78;;;13.57;100.00
9077;BME280;4574;51.072;17.174;2022-07-11T04:47:38;100384.13;;;13.59;100.00
9077;BME280;4574;51.072;17.174;2022-07-11T04:50:07;100380.97;;;13.63;100.00
9077;BME280;4574;51.072;17.174;2022-07-11T04:52:36;100388.16;;;13.63;100.00
9077;BME280;4574;51.072;17.174;2022-07-11T04:55:07;100401.63;;;13.69;100.00
9077;BME280;4574;51.072;17.174;2022-07-11T04:57:35;100390.84;;;13.71;100.00
9077;BME280;4574;51.072;17.174;2022-07-11T05:00:05;100398.50;;;13.74;100.00
9077;BME280;4574;51.072;17.174;2022-07-11T05:02:34;100400.81;;;13.77;100.00
9077;BME280;4574;51.072;17.174;2022-07-11T05:05:04;100393.19;;;13.82;100.00
9077;BME280;4574;51.072;17.174;2022-07-11T05:07:32;100395.88;;;13.90;100.00
9077;BME280;4574;51.072;17.174;2022-07-11T05:10:01;100393.53;;;13.95;100.00
9077;BME280;4574;51.072;17.174;2022-07-11T05:12:31;100401.53;;;14.03;100.00
9077;BME280;4574;51.072;17.174;2022-07-11T05:15:00;100401.34;;;14.04;100.00
9077;BME280;4574;51.072;17.174;2022-07-11T05:17:29;100406.53;;;14.06;100.00
9077;BME280;4574;51.072;17.174;2022-07-11T05:19:57;100392.22;;;14.07;100.00
9077;BME280;4574;51.072;17.174;2022-07-11T05:22:26;100396.91;;;14.13;100.00
9077;BME280;4574;51.072;17.174;2022-07-11T05:24:55;100396.59;;;14.16;100.00
9077;BME280;4574;51.072;17.174;2022-07-11T05:27:23;100399.09;;;14.25;100.00
9077;BME280;4574;51.072;17.174;2022-07-11T05:29:53;100398.09;;;14.26;100.00
9077;BME280;4574;51.072;17.174;2022-07-11T05:32:22;100404.75;;;14.38;100.00
9077;BME280;4574;51.072;17.174;2022-07-11T05:34:50;100401.59;;;14.51;100.00
9077;BME280;4574;51.072;17.174;2022-07-11T05:37:19;100390.94;;;14.59;100.00
9077;BME280;4574;51.072;17.174;2022-07-11T05:39:48;100402.56;;;14.73;100.00
9077;BME280;4574;51.072;17.174;2022-07-11T05:42:17;100404.41;;;14.81;100.00
9077;BME280;4574;51.072;17.174;2022-07-11T05:44:46;100399.56;;;14.84;100.00
9077;BME280;4574;51.072;17.174;2022-07-11T05:47:16;100392.88;;;14.88;100.00
9077;BME280;4574;51.072;17.174;2022-07-11T05:49:45;100404.84;;;15.00;100.00
9077;BME280;4574;51.072;17.174;2022-07-11T05:52:14;100391.53;;;15.00;100.00
9077;BME280;4574;51.072;17.174;2022-07-11T05:54:42;100402.13;;;15.16;100.00
9077;BME280;4574;51.072;17.174;2022-07-11T05:57:11;100403.97;;;15.24;100.00
9077;BME280;4574;51.072;17.174;2022-07-11T05:59:39;100397.13;;;15.29;99.29
9077;BME280;4574;51.072;17.174;2022-07-11T06:02:08;100405.38;;;15.58;100.00
9077;BME280;4574;51.072;17.174;2022-07-11T06:04:40;100396.41;;;15.82;100.00
9077;BME280;4574;51.072;17.174;2022-07-11T06:07:11;100399.47;;;16.01;98.43
9077;BME280;4574;51.072;17.174;2022-07-11T06:10:00;100397.25;;;15.82;97.54
9077;BME280;4574;51.072;17.174;2022-07-11T06:12:28;100390.09;;;15.75;98.31
9077;BME280;4574;51.072;17.174;2022-07-11T06:14:56;100392.56;;;15.84;98.35
9077;BME280;4574;51.072;17.174;2022-07-11T06:17:25;100394.38;;;15.84;98.71
9077;BME280;4574;51.072;17.174;2022-07-11T06:19:55;100404.25;;;15.83;98.42
9077;BME280;4574;51.072;17.174;2022-07-11T06:22:23;100398.19;;;15.89;98.91
9077;BME280;4574;51.072;17.174;2022-07-11T06:24:52;100393.47;;;15.99;99.12
9077;BME280;4574;51.072;17.174;2022-07-11T06:27:20;100398.03;;;16.13;98.39
9077;BME280;4574;51.072;17.174;2022-07-11T06:29:49;100400.50;;;16.22;98.33
9077;BME280;4574;51.072;17.174;2022-07-11T06:32:17;100405.13;;;16.28;97.29
9077;BME280;4574;51.072;17.174;2022-07-11T06:34:46;100402.66;;;16.19;95.87
9077;BME280;4574;51.072;17.174;2022-07-11T06:37:16;100400.22;;;16.32;96.10
9077;BME280;4574;51.072;17.174;2022-07-11T06:39:44;100402.50;;;16.43;96.53
9077;BME280;4574;51.072;17.174;2022-07-11T06:42:13;100393.03;;;16.40;96.75
9077;BME280;4574;51.072;17.174;2022-07-11T06:44:41;100412.97;;;16.52;96.42
9077;BME280;4574;51.072;17.174;2022-07-11T06:47:10;100416.66;;;16.51;96.23
9077;BME280;4574;51.072;17.174;2022-07-11T06:49:38;100413.31;;;16.49;97.31
9077;BME280;4574;51.072;17.174;2022-07-11T06:52:07;100415.34;;;16.47;96.91
9077;BME280;4574;51.072;17.174;2022-07-11T06:54:37;100414.69;;;16.45;96.48
9077;BME280;4574;51.072;17.174;2022-07-11T06:57:05;100412.84;;;16.46;97.42
9077;BME280;4574;51.072;17.174;2022-07-11T06:59:38;100418.03;;;16.47;98.02
9077;BME280;4574;51.072;17.174;2022-07-11T07:02:07;100418.47;;;16.51;98.15
9077;BME280;4574;51.072;17.174;2022-07-11T07:04:35;100420.16;;;16.52;97.81
9077;BME280;4574;51.072;17.174;2022-07-11T07:07:04;100424.47;;;16.53;98.58
9077;BME280;4574;51.072;17.174;2022-07-11T07:09:33;100414.34;;;16.48;97.66
9077;BME280;4574;51.072;17.174;2022-07-11T07:12:03;100424.38;;;16.46;95.32
9077;BME280;4574;51.072;17.174;2022-07-11T07:14:33;100420.84;;;16.46;95.54
9077;BME280;4574;51.072;17.174;2022-07-11T07:17:01;100417.97;;;16.55;96.52
9077;BME280;4574;51.072;17.174;2022-07-11T07:19:30;100413.03;;;16.44;98.09
9077;BME280;4574;51.072;17.174;2022-07-11T07:21:58;100402.25;;;16.30;97.83
9077;BME280;4574;51.072;17.174;2022-07-11T07:24:27;100420.63;;;16.33;97.19
9077;BME280;4574;51.072;17.174;2022-07-11T07:26:55;100406.59;;;16.31;97.98
9077;BME280;4574;51.072;17.174;2022-07-11T07:29:25;100410.47;;;16.28;97.87
9077;BME280;4574;51.072;17.174;2022-07-11T07:31:55;100405.38;;;16.41;98.57
9077;BME280;4574;51.072;17.174;2022-07-11T07:34:24;100405.47;;;16.48;99.11
9077;BME280;4574;51.072;17.174;2022-07-11T07:36:53;100400.06;;;16.56;97.26
9077;BME280;4574;51.072;17.174;2022-07-11T07:39:23;100405.34;;;16.64;96.70
9077;BME280;4574;51.072;17.174;2022-07-11T07:41:51;100399.47;;;16.68;96.33
9077;BME280;4574;51.072;17.174;2022-07-11T07:44:20;100388.56;;;16.70;95.26
9077;BME280;4574;51.072;17.174;2022-07-11T07:46:51;100395.88;;;16.76;95.51
9077;BME280;4574;51.072;17.174;2022-07-11T07:49:20;100401.91;;;16.92;96.48
9077;BME280;4574;51.072;17.174;2022-07-11T07:51:49;100413.72;;;17.12;95.54
9077;BME280;4574;51.072;17.174;2022-07-11T07:54:18;100409.88;;;17.15;92.48
9077;BME280;4574;51.072;17.174;2022-07-11T07:56:50;100410.78;;;17.22;93.04
9077;BME280;4574;51.072;17.174;2022-07-11T07:59:19;100416.34;;;17.35;93.42
9077;BME280;4574;51.072;17.174;2022-07-11T08:01:53;100415.13;;;17.23;90.37
9077;BME280;4574;51.072;17.174;2022-07-11T08:04:20;100413.44;;;17.07;91.99
9077;BME280;4574;51.072;17.174;2022-07-11T08:06:49;100415.03;;;17.02;92.18
9077;BME280;4574;51.072;17.174;2022-07-11T08:09:18;100416.13;;;17.22;91.94
9077;BME280;4574;51.072;17.174;2022-07-11T08:11:48;100409.88;;;17.44;91.36
9077;BME280;4574;51.072;17.174;2022-07-11T08:14:16;100407.13;;;17.52;91.87
9077;BME280;4574;51.072;17.174;2022-07-11T08:16:46;100406.81;;;17.61;92.46
9077;BME280;4574;51.072;17.174;2022-07-11T08:19:16;100402.84;;;17.71;90.46
9077;BME280;4574;51.072;17.174;2022-07-11T08:21:45;100402.91;;;17.78;91.11
9077;BME280;4574;51.072;17.174;2022-07-11T08:24:13;100403.63;;;17.86;88.20
9077;BME280;4574;51.072;17.174;2022-07-11T08:26:42;100400.47;;;17.97;87.42
9077;BME280;4574;51.072;17.174;2022-07-11T08:29:10;100386.44;;;18.16;87.53
9077;BME280;4574;51.072;17.174;2022-07-11T08:31:39;100392.22;;;18.34;86.53
9077;BME280;4574;51.072;17.174;2022-07-11T08:34:08;100390.41;;;18.41;86.16
9077;BME280;4574;51.072;17.174;2022-07-11T08:36:43;100380.34;;;18.43;85.33
9077;BME280;4574;51.072;17.174;2022-07-11T08:39:12;100383.41;;;18.40;86.37
9077;BME280;4574;51.072;17.174;2022-07-11T08:41:43;100388.34;;;18.37;84.86
9077;BME280;4574;51.072;17.174;2022-07-11T08:44:12;100380.97;;;18.45;86.15
9077;BME280;4574;51.072;17.174;2022-07-11T08:46:41;100383.34;;;18.55;84.08
9077;BME280;4574;51.072;17.174;2022-07-11T08:49:11;100384.84;;;18.64;84.66
9077;BME280;4574;51.072;17.174;2022-07-11T08:51:42;100378.50;;;18.44;82.08
9077;BME280;4574;51.072;17.174;2022-07-11T08:54:11;100386.25;;;18.60;82.53
9077;BME280;4574;51.072;17.174;2022-07-11T08:56:44;100384.53;;;18.73;80.91
9077;BME280;4574;51.072;17.174;2022-07-11T08:59:15;100388.34;;;18.85;83.20
9077;BME280;4574;51.072;17.174;2022-07-11T09:01:45;100384.13;;;18.76;81.90
9077;BME280;4574;51.072;17.174;2022-07-11T09:04:15;100385.28;;;18.67;82.84
9077;BME280;4574;51.072;17.174;2022-07-11T09:06:48;100384.78;;;18.57;83.06
9077;BME280;4574;51.072;17.174;2022-07-11T09:09:16;100383.19;;;18.63;83.02
9077;BME280;4574;51.072;17.174;2022-07-11T09:11:49;100381.31;;;18.63;82.70
9077;BME280;4574;51.072;17.174;2022-07-11T09:14:23;100379.03;;;18.60;82.55
9077;BME280;4574;51.072;17.174;2022-07-11T09:16:56;100371.97;;;18.53;81.82
9077;BME280;4574;51.072;17.174;2022-07-11T09:19:26;100372.84;;;18.60;82.50
9077;BME280;4574;51.072;17.174;2022-07-11T09:22:04;100379.25;;;18.86;82.87
9077;BME280;4574;51.072;17.174;2022-07-11T09:24:55;100385.31;;;19.22;79.09
9077;BME280;4574;51.072;17.174;2022-07-11T09:27:47;100376.59;;;19.54;78.45
9077;BME280;4574;51.072;17.174;2022-07-11T09:30:18;100377.50;;;19.74;77.24
9077;BME280;4574;51.072;17.174;2022-07-11T09:32:59;100369.28;;;19.95;76.71
9077;BME280;4574;51.072;17.174;2022-07-11T09:35:30;100382.69;;;19.75;76.99
9077;BME280;4574;51.072;17.174;2022-07-11T09:38:02;100377.25;;;19.69;78.00
9077;BME280;4574;51.072;17.174;2022-07-11T09:40:31;100365.13;;;19.79;77.63
9077;BME280;4574;51.072;17.174;2022-07-11T09:43:00;100375.19;;;19.71;77.62
9077;BME280;4574;51.072;17.174;2022-07-11T09:45:30;100373.28;;;19.52;77.69
9077;BME280;4574;51.072;17.174;2022-07-11T09:48:00;100376.31;;;19.42;78.62
9077;BME280;4574;51.072;17.174;2022-07-11T09:50:30;100368.00;;;19.31;78.99
9077;BME280;4574;51.072;17.174;2022-07-11T09:53:02;100370.28;;;19.34;78.99
9077;BME280;4574;51.072;17.174;2022-07-11T09:55:32;100371.44;;;19.59;80.00
9077;BME280;4574;51.072;17.174;2022-07-11T09:58:19;100360.34;;;19.75;78.53
9077;BME280;4574;51.072;17.174;2022-07-11T10:00:50;100341.16;;;19.91;76.73
9077;BME280;4574;51.072;17.174;2022-07-11T10:03:22;100344.34;;;20.20;77.10
9077;BME280;4574;51.072;17.174;2022-07-11T10:06:12;100344.78;;;20.43;75.70
9077;BME280;4574;51.072;17.174;2022-07-11T10:08:42;100349.31;;;20.75;76.52
9077;BME280;4574;51.072;17.174;2022-07-11T10:11:11;100346.66;;;20.36;76.47
9077;BME280;4574;51.072;17.174;2022-07-11T10:13:40;100347.28;;;20.44;76.24
9077;BME280;4574;51.072;17.174;2022-07-11T10:16:22;100351.00;;;20.69;76.69
9077;BME280;4574;51.072;17.174;2022-07-11T10:19:02;100341.06;;;20.76;73.46
9077;BME280;4574;51.072;17.174;2022-07-11T10:21:41;100351.41;;;20.66;73.04
9077;BME280;4574;51.072;17.174;2022-07-11T10:24:29;100340.84;;;20.32;74.40
9077;BME280;4574;51.072;17.174;2022-07-11T10:27:11;100350.13;;;20.24;75.83
9077;BME280;4574;51.072;17.174;2022-07-11T10:29:49;100349.72;;;20.20;76.01
9077;BME280;4574;51.072;17.174;2022-07-11T10:32:18;100345.97;;;20.02;76.64
9077;BME280;4574;51.072;17.174;2022-07-11T10:35:06;100349.44;;;19.89;76.81
9077;BME280;4574;51.072;17.174;2022-07-11T10:37:48;100351.88;;;19.71;78.00
9077;BME280;4574;51.072;17.174;2022-07-11T10:40:40;100368.81;;;19.72;78.51
9077;BME280;4574;51.072;17.174;2022-07-11T10:43:09;100388.13;;;19.48;79.19
9077;BME280;4574;51.072;17.174;2022-07-11T10:45:57;100379.03;;;19.49;80.58
9077;BME280;4574;51.072;17.174;2022-07-11T10:48:27;100367.22;;;19.37;81.57
9077;BME280;4574;51.072;17.174;2022-07-11T10:51:10;100368.94;;;19.51;81.32
9077;BME280;4574;51.072;17.174;2022-07-11T10:53:46;100365.72;;;19.75;78.63
9077;BME280;4574;51.072;17.174;2022-07-11T10:59:22;100342.69;;;20.38;76.26
9077;BME280;4574;51.072;17.174;2022-07-11T11:02:07;100348.72;;;20.34;75.56
9077;BME280;4574;51.072;17.174;2022-07-11T11:04:43;100354.31;;;20.58;76.15
9077;BME280;4574;51.072;17.174;2022-07-11T11:07:31;100337.53;;;20.95;71.53
9077;BME280;4574;51.072;17.174;2022-07-11T11:10:04;100347.19;;;21.22;71.52
9077;BME280;4574;51.072;17.174;2022-07-11T11:13:11;100335.66;;;21.59;71.25
9077;BME280;4574;51.072;17.174;2022-07-11T11:15:43;100333.47;;;21.87;71.51
9077;BME280;4574;51.072;17.174;2022-07-11T11:18:39;100337.00;;;22.18;66.85
9077;BME280;4574;51.072;17.174;2022-07-11T11:21:22;100343.50;;;22.11;67.77
9077;BME280;4574;51.072;17.174;2022-07-11T11:24:07;100353.91;;;22.01;68.72
9077;BME280;4574;51.072;17.174;2022-07-11T11:26:47;100347.25;;;21.73;68.83
9077;BME280;4574;51.072;17.174;2022-07-11T11:29:25;100345.34;;;21.73;67.37
9077;BME280;4574;51.072;17.174;2022-07-11T11:31:55;100353.66;;;22.09;64.48
9077;BME280;4574;51.072;17.174;2022-07-11T11:34:25;100339.22;;;22.28;63.48
9077;BME280;4574;51.072;17.174;2022-07-11T11:36:55;100342.91;;;22.40;61.41
9077;BME280;4574;51.072;17.174;2022-07-11T11:39:26;100339.75;;;22.43;57.19
9077;BME280;4574;51.072;17.174;2022-07-11T11:42:04;100340.59;;;22.68;56.32
9077;BME280;4574;51.072;17.174;2022-07-11T11:44:38;100350.94;;;22.71;56.22
9077;BME280;4574;51.072;17.174;2022-07-11T11:47:15;100329.19;;;22.41;57.60
9077;BME280;4574;51.072;17.174;2022-07-11T11:49:45;100341.25;;;22.32;59.77
9077;BME280;4574;51.072;17.174;2022-07-11T11:52:14;100353.41;;;22.17;61.12
9077;BME280;4574;51.072;17.174;2022-07-11T11:54:43;100354.34;;;21.98;63.32
9077;BME280;4574;51.072;17.174;2022-07-11T11:57:13;100357.44;;;21.51;66.83
9077;BME280;4574;51.072;17.174;2022-07-11T11:59:52;100360.00;;;21.33;67.60
9077;BME280;4574;51.072;17.174;2022-07-11T12:02:23;100350.47;;;21.37;68.13
9077;BME280;4574;51.072;17.174;2022-07-11T12:04:52;100359.63;;;21.23;68.76
9077;BME280;4574;51.072;17.174;2022-07-11T12:07:25;100362.09;;;21.31;69.99
9077;BME280;4574;51.072;17.174;2022-07-11T12:09:57;100365.81;;;21.30;69.97
9077;BME280;4574;51.072;17.174;2022-07-11T12:12:29;100371.59;;;21.40;69.67
9077;BME280;4574;51.072;17.174;2022-07-11T12:15:26;100381.94;;;21.43;70.57
9077;BME280;4574;51.072;17.174;2022-07-11T12:17:59;100410.13;;;21.34;77.95
9077;BME280;4574;51.072;17.174;2022-07-11T12:20:34;100409.78;;;21.05;80.13
9077;BME280;4574;51.072;17.174;2022-07-11T12:23:05;100396.56;;;20.90;80.29
9077;BME280;4574;51.072;17.174;2022-07-11T12:25:39;100381.38;;;20.31;84.81
9077;BME280;4574;51.072;17.174;2022-07-11T12:28:09;100386.13;;;20.16;83.72
9077;BME280;4574;51.072;17.174;2022-07-11T12:30:39;100410.50;;;20.15;83.31
9077;BME280;4574;51.072;17.174;2022-07-11T12:33:09;100430.28;;;19.94;85.04
9077;BME280;4574;51.072;17.174;2022-07-11T12:35:56;100439.03;;;20.09;86.80
9077;BME280;4574;51.072;17.174;2022-07-11T12:38:25;100428.22;;;19.96;88.93
9077;BME280;4574;51.072;17.174;2022-07-11T12:41:01;100429.69;;;18.97;95.98
9077;BME280;4574;51.072;17.174;2022-07-11T12:43:40;100427.31;;;18.60;98.85
9077;BME280;4574;51.072;17.174;2022-07-11T12:46:29;100421.31;;;18.37;100.00
9077;BME280;4574;51.072;17.174;2022-07-11T12:49:00;100435.03;;;18.70;96.19
9077;BME280;4574;51.072;17.174;2022-07-11T12:51:31;100440.00;;;18.73;99.56
9077;BME280;4574;51.072;17.174;2022-07-11T12:54:03;100458.81;;;19.00;95.63
9077;BME280;4574;51.072;17.174;2022-07-11T12:56:32;100471.59;;;19.19;93.63
9077;BME280;4574;51.072;17.174;2022-07-11T12:59:02;100479.09;;;19.30;93.45
9077;BME280;4574;51.072;17.174;2022-07-11T13:01:54;100492.44;;;19.17;97.98
9077;BME280;4574;51.072;17.174;2022-07-11T13:04:30;100480.84;;;19.16;96.52
9077;BME280;4574;51.072;17.174;2022-07-11T13:07:17;100502.19;;;19.24;95.83
9077;BME280;4574;51.072;17.174;2022-07-11T13:10:08;100526.69;;;18.94;98.43
9077;BME280;4574;51.072;17.174;2022-07-11T13:12:38;100530.09;;;18.67;100.00
9077;BME280;4574;51.072;17.174;2022-07-11T13:15:11;100527.81;;;18.14;100.00
9077;BME280;4574;51.072;17.174;2022-07-11T13:17:42;100520.91;;;18.05;100.00
9077;BME280;4574;51.072;17.174;2022-07-11T13:20:13;100516.66;;;17.82;100.00